createdAt,value
2022-12-02T00:17:44.031Z,47
2022-12-02T00:46:50.939Z,50
2022-12-02T01:15:58.149Z,52
2022-12-02T01:44:58.044Z,49
2022-12-02T02:14:10.978Z,52
2022-12-02T02:43:23.749Z,50
2022-12-02T03:12:40.247Z,50
2022-12-02T03:41:46.237Z,50
2022-12-02T04:10:46.932Z,52
2022-12-02T04:39:55.636Z,57
2022-12-02T05:08:32.169Z,53
2022-12-02T05:37:40.027Z,52
2022-12-02T06:06:42.654Z,52
2022-12-02T06:35:38.843Z,47
2022-12-02T07:04:44.218Z,45
2022-12-02T07:33:44.575Z,49
2022-12-02T08:02:47.875Z,49
2022-12-02T08:31:58.819Z,49
2022-12-02T09:01:08.968Z,50
2022-12-02T09:30:13.806Z,48
2022-12-02T09:59:26.122Z,49
2022-12-02T10:28:33.632Z,49
2022-12-02T10:57:48.537Z,47
2022-12-02T11:27:02.479Z,47
2022-12-02T11:56:23.845Z,53
2022-12-02T12:25:44.363Z,50
2022-12-02T12:55:07.257Z,47
2022-12-02T13:24:28.123Z,60
2022-12-02T13:53:58.950Z,52
2022-12-02T14:22:38.166Z,49
2022-12-02T14:51:59.090Z,49
2022-12-02T15:21:13.784Z,51
2022-12-02T15:49:55.347Z,49
2022-12-02T16:19:16.615Z,47
2022-12-02T16:48:35.355Z,46
2022-12-02T17:17:54.099Z,38
2022-12-02T17:47:06.733Z,37
2022-12-02T18:16:26.540Z,41
2022-12-02T18:45:32.429Z,36
2022-12-02T19:14:44.600Z,36
2022-12-02T19:43:36.373Z,34
2022-12-02T20:12:32.680Z,32
2022-12-02T20:41:34.022Z,32
2022-12-02T21:10:51.837Z,31
2022-12-02T21:39:57.557Z,36
2022-12-02T22:09:11.364Z,30
2022-12-02T22:38:24.773Z,30
2022-12-02T23:07:36.216Z,29
2022-12-02T23:36:37.072Z,29
